sensor_id;sensor_type;location;lat;lon;timestamp;P1;durP1;ratioP1;P2;durP2;ratioP2
5961;SDS011;3007;50.770;0.250;2022-11-27T00:02:24;8.83;;;1.60;;
5961;SDS011;3007;50.770;0.250;2022-11-27T00:04:51;7.70;;;2.27;;
5961;SDS011;3007;50.770;0.250;2022-11-27T00:07:18;9.13;;;1.93;;
5961;SDS011;3007;50.770;0.250;2022-11-27T00:09:47;7.03;;;2.27;;
5961;SDS011;3007;50.770;0.250;2022-11-27T00:12:14;5.57;;;1.70;;
5961;SDS011;3007;50.770;0.250;2022-11-27T00:14:41;6.53;;;1.60;;
5961;SDS011;3007;50.770;0.250;2022-11-27T00:17:08;7.07;;;1.60;;
5961;SDS011;3007;50.770;0.250;2022-11-27T00:19:35;8.43;;;2.07;;
5961;SDS011;3007;50.770;0.250;2022-11-27T00:22:02;8.57;;;1.83;;
5961;SDS011;3007;50.770;0.250;2022-11-27T00:24:29;8.57;;;1.70;;
5961;SDS011;3007;50.770;0.250;2022-11-27T00:26:57;12.17;;;2.40;;
5961;SDS011;3007;50.770;0.250;2022-11-27T00:29:24;8.87;;;1.80;;
5961;SDS011;3007;50.770;0.250;2022-11-27T00:31:53;8.63;;;2.60;;
5961;SDS011;3007;50.770;0.250;2022-11-27T00:34:20;11.63;;;2.40;;
5961;SDS011;3007;50.770;0.250;2022-11-27T00:36:48;13.50;;;2.63;;
5961;SDS011;3007;50.770;0.250;2022-11-27T00:39:15;15.43;;;2.90;;
5961;SDS011;3007;50.770;0.250;2022-11-27T00:41:42;11.57;;;2.63;;
5961;SDS011;3007;50.770;0.250;2022-11-27T00:44:11;7.97;;;2.33;;
5961;SDS011;3007;50.770;0.250;2022-11-27T00:46:38;11.13;;;2.50;;
5961;SDS011;3007;50.770;0.250;2022-11-27T00:49:05;9.67;;;1.53;;
5961;SDS011;3007;50.770;0.250;2022-11-27T00:51:33;8.47;;;2.10;;
5961;SDS011;3007;50.770;0.250;2022-11-27T00:54:01;9.33;;;2.37;;
5961;SDS011;3007;50.770;0.250;2022-11-27T00:56:29;4.53;;;1.90;;
5961;SDS011;3007;50.770;0.250;2022-11-27T00:58:57;14.03;;;2.33;;
5961;SDS011;3007;50.770;0.250;2022-11-27T01:01:27;14.43;;;2.83;;
5961;SDS011;3007;50.770;0.250;2022-11-27T01:03:55;11.47;;;2.33;;
5961;SDS011;3007;50.770;0.250;2022-11-27T01:06:25;11.73;;;3.23;;
5961;SDS011;3007;50.770;0.250;2022-11-27T01:08:53;9.87;;;2.70;;
5961;SDS011;3007;50.770;0.250;2022-11-27T01:11:21;11.63;;;2.10;;
5961;SDS011;3007;50.770;0.250;2022-11-27T01:13:51;12.07;;;2.87;;
5961;SDS011;3007;50.770;0.250;2022-11-27T01:16:19;19.00;;;3.40;;
5961;SDS011;3007;50.770;0.250;2022-11-27T01:18:50;11.40;;;2.93;;
5961;SDS011;3007;50.770;0.250;2022-11-27T01:21:20;13.43;;;2.60;;
5961;SDS011;3007;50.770;0.250;2022-11-27T01:23:47;11.00;;;2.30;;
5961;SDS011;3007;50.770;0.250;2022-11-27T01:26:15;13.80;;;2.73;;
5961;SDS011;3007;50.770;0.250;2022-11-27T01:28:43;21.07;;;3.10;;
5961;SDS011;3007;50.770;0.250;2022-11-27T01:31:11;13.20;;;2.57;;
5961;SDS011;3007;50.770;0.250;2022-11-27T01:33:40;14.63;;;2.87;;
5961;SDS011;3007;50.770;0.250;2022-11-27T01:36:09;19.60;;;2.97;;
5961;SDS011;3007;50.770;0.250;2022-11-27T01:38:38;20.70;;;3.20;;
5961;SDS011;3007;50.770;0.250;2022-11-27T01:41:06;14.73;;;2.87;;
5961;SDS011;3007;50.770;0.250;2022-11-27T01:43:38;20.53;;;3.40;;
5961;SDS011;3007;50.770;0.250;2022-11-27T01:49:08;17.10;;;2.73;;
5961;SDS011;3007;50.770;0.250;2022-11-27T01:51:50;14.00;;;3.07;;
5961;SDS011;3007;50.770;0.250;2022-11-27T01:54:20;13.20;;;2.57;;
5961;SDS011;3007;50.770;0.250;2022-11-27T01:56:51;11.57;;;2.20;;
5961;SDS011;3007;50.770;0.250;2022-11-27T01:59:21;11.23;;;2.40;;
5961;SDS011;3007;50.770;0.250;2022-11-27T02:01:49;14.87;;;3.57;;
5961;SDS011;3007;50.770;0.250;2022-11-27T02:04:17;17.30;;;3.63;;
5961;SDS011;3007;50.770;0.250;2022-11-27T02:06:44;13.10;;;3.03;;
5961;SDS011;3007;50.770;0.250;2022-11-27T02:09:13;11.13;;;2.80;;
5961;SDS011;3007;50.770;0.250;2022-11-27T02:11:43;13.97;;;3.10;;
5961;SDS011;3007;50.770;0.250;2022-11-27T02:14:17;15.97;;;2.77;;
5961;SDS011;3007;50.770;0.250;2022-11-27T02:16:53;11.10;;;2.47;;
5961;SDS011;3007;50.770;0.250;2022-11-27T02:19:31;10.30;;;2.17;;
5961;SDS011;3007;50.770;0.250;2022-11-27T02:22:07;15.67;;;3.20;;
5961;SDS011;3007;50.770;0.250;2022-11-27T02:24:48;10.87;;;2.83;;
5961;SDS011;3007;50.770;0.250;2022-11-27T02:27:27;16.70;;;2.90;;
5961;SDS011;3007;50.770;0.250;2022-11-27T02:30:08;11.20;;;2.83;;
5961;SDS011;3007;50.770;0.250;2022-11-27T02:32:37;11.83;;;2.87;;
5961;SDS011;3007;50.770;0.250;2022-11-27T02:35:09;16.33;;;3.03;;
5961;SDS011;3007;50.770;0.250;2022-11-27T02:37:42;13.10;;;2.93;;
5961;SDS011;3007;50.770;0.250;2022-11-27T02:40:12;13.37;;;2.57;;
5961;SDS011;3007;50.770;0.250;2022-11-27T02:42:46;11.07;;;3.10;;
5961;SDS011;3007;50.770;0.250;2022-11-27T02:45:19;12.33;;;3.00;;
5961;SDS011;3007;50.770;0.250;2022-11-27T02:47:49;13.30;;;2.90;;
5961;SDS011;3007;50.770;0.250;2022-11-27T02:50:17;17.77;;;2.87;;
5961;SDS011;3007;50.770;0.250;2022-11-27T02:52:46;12.80;;;3.17;;
5961;SDS011;3007;50.770;0.250;2022-11-27T02:55:16;19.47;;;3.20;;
5961;SDS011;3007;50.770;0.250;2022-11-27T02:57:48;15.47;;;3.53;;
5961;SDS011;3007;50.770;0.250;2022-11-27T03:00:19;16.33;;;2.90;;
5961;SDS011;3007;50.770;0.250;2022-11-27T03:02:47;16.87;;;3.67;;
5961;SDS011;3007;50.770;0.250;2022-11-27T03:05:17;9.13;;;2.27;;
5961;SDS011;3007;50.770;0.250;2022-11-27T03:07:48;13.43;;;3.03;;
5961;SDS011;3007;50.770;0.250;2022-11-27T03:10:23;20.87;;;3.10;;
5961;SDS011;3007;50.770;0.250;2022-11-27T03:12:55;16.00;;;3.20;;
5961;SDS011;3007;50.770;0.250;2022-11-27T03:15:25;14.23;;;2.90;;
5961;SDS011;3007;50.770;0.250;2022-11-27T03:17:58;13.93;;;2.20;;
5961;SDS011;3007;50.770;0.250;2022-11-27T03:20:29;8.67;;;2.10;;
5961;SDS011;3007;50.770;0.250;2022-11-27T03:23:02;15.47;;;2.30;;
5961;SDS011;3007;50.770;0.250;2022-11-27T03:25:29;12.77;;;2.73;;
5961;SDS011;3007;50.770;0.250;2022-11-27T03:27:57;19.17;;;2.77;;
5961;SDS011;3007;50.770;0.250;2022-11-27T03:30:27;14.87;;;2.97;;
5961;SDS011;3007;50.770;0.250;2022-11-27T03:32:55;9.63;;;2.20;;
5961;SDS011;3007;50.770;0.250;2022-11-27T03:35:23;13.53;;;2.50;;
5961;SDS011;3007;50.770;0.250;2022-11-27T03:37:52;13.97;;;2.40;;
5961;SDS011;3007;50.770;0.250;2022-11-27T03:40:20;12.53;;;2.63;;
5961;SDS011;3007;50.770;0.250;2022-11-27T03:42:54;10.93;;;2.43;;
5961;SDS011;3007;50.770;0.250;2022-11-27T03:45:32;10.57;;;2.80;;
5961;SDS011;3007;50.770;0.250;2022-11-27T03:48:08;14.97;;;2.47;;
5961;SDS011;3007;50.770;0.250;2022-11-27T03:50:46;14.63;;;2.63;;
5961;SDS011;3007;50.770;0.250;2022-11-27T03:53:27;15.27;;;2.10;;
5961;SDS011;3007;50.770;0.250;2022-11-27T03:56:04;10.17;;;3.97;;
5961;SDS011;3007;50.770;0.250;2022-11-27T03:58:37;9.07;;;2.30;;
5961;SDS011;3007;50.770;0.250;2022-11-27T04:01:10;10.67;;;2.23;;
5961;SDS011;3007;50.770;0.250;2022-11-27T04:03:40;13.23;;;2.70;;
5961;SDS011;3007;50.770;0.250;2022-11-27T04:06:07;14.83;;;2.27;;
5961;SDS011;3007;50.770;0.250;2022-11-27T04:08:37;11.30;;;2.20;;
5961;SDS011;3007;50.770;0.250;2022-11-27T04:11:04;17.53;;;2.60;;
5961;SDS011;3007;50.770;0.250;2022-11-27T04:13:32;12.50;;;2.90;;
5961;SDS011;3007;50.770;0.250;2022-11-27T04:15:59;13.93;;;2.80;;
5961;SDS011;3007;50.770;0.250;2022-11-27T04:18:28;11.03;;;2.40;;
5961;SDS011;3007;50.770;0.250;2022-11-27T04:20:55;17.53;;;2.70;;
5961;SDS011;3007;50.770;0.250;2022-11-27T04:23:22;14.17;;;2.37;;
5961;SDS011;3007;50.770;0.250;2022-11-27T04:25:49;7.50;;;2.30;;
5961;SDS011;3007;50.770;0.250;2022-11-27T04:28:17;9.47;;;3.20;;
5961;SDS011;3007;50.770;0.250;2022-11-27T04:30:44;10.07;;;2.10;;
5961;SDS011;3007;50.770;0.250;2022-11-27T04:33:15;13.20;;;2.67;;
5961;SDS011;3007;50.770;0.250;2022-11-27T04:35:44;9.03;;;1.87;;
5961;SDS011;3007;50.770;0.250;2022-11-27T04:38:11;13.07;;;2.80;;
5961;SDS011;3007;50.770;0.250;2022-11-27T04:40:38;10.43;;;2.60;;
5961;SDS011;3007;50.770;0.250;2022-11-27T04:43:05;8.73;;;2.90;;
5961;SDS011;3007;50.770;0.250;2022-11-27T04:45:32;14.40;;;2.03;;
5961;SDS011;3007;50.770;0.250;2022-11-27T04:47:59;11.37;;;2.50;;
5961;SDS011;3007;50.770;0.250;2022-11-27T04:50:26;20.40;;;3.17;;
5961;SDS011;3007;50.770;0.250;2022-11-27T04:52:55;9.80;;;2.40;;
5961;SDS011;3007;50.770;0.250;2022-11-27T04:55:22;15.87;;;2.97;;
5961;SDS011;3007;50.770;0.250;2022-11-27T04:57:49;11.60;;;2.40;;
5961;SDS011;3007;50.770;0.250;2022-11-27T05:00:16;13.07;;;2.47;;
5961;SDS011;3007;50.770;0.250;2022-11-27T05:02:44;9.93;;;2.13;;
5961;SDS011;3007;50.770;0.250;2022-11-27T05:05:11;11.93;;;2.47;;
5961;SDS011;3007;50.770;0.250;2022-11-27T05:07:38;15.27;;;2.97;;
5961;SDS011;3007;50.770;0.250;2022-11-27T05:10:07;9.17;;;2.37;;
5961;SDS011;3007;50.770;0.250;2022-11-27T05:12:35;12.23;;;3.00;;
5961;SDS011;3007;50.770;0.250;2022-11-27T05:15:02;12.23;;;3.17;;
5961;SDS011;3007;50.770;0.250;2022-11-27T05:17:29;13.47;;;2.43;;
5961;SDS011;3007;50.770;0.250;2022-11-27T05:19:57;11.93;;;2.60;;
5961;SDS011;3007;50.770;0.250;2022-11-27T05:22:23;10.53;;;2.50;;
5961;SDS011;3007;50.770;0.250;2022-11-27T05:24:51;12.03;;;2.40;;
5961;SDS011;3007;50.770;0.250;2022-11-27T05:27:19;14.03;;;3.00;;
5961;SDS011;3007;50.770;0.250;2022-11-27T05:29:46;14.87;;;2.10;;
5961;SDS011;3007;50.770;0.250;2022-11-27T05:32:13;7.77;;;2.27;;
5961;SDS011;3007;50.770;0.250;2022-11-27T05:34:40;13.97;;;2.53;;
5961;SDS011;3007;50.770;0.250;2022-11-27T05:37:07;9.87;;;1.90;;
5961;SDS011;3007;50.770;0.250;2022-11-27T05:39:34;10.43;;;2.27;;
5961;SDS011;3007;50.770;0.250;2022-11-27T05:42:01;9.03;;;1.97;;
5961;SDS011;3007;50.770;0.250;2022-11-27T05:44:29;11.20;;;2.10;;
5961;SDS011;3007;50.770;0.250;2022-11-27T05:46:56;10.73;;;2.20;;
5961;SDS011;3007;50.770;0.250;2022-11-27T05:49:23;9.07;;;1.93;;
5961;SDS011;3007;50.770;0.250;2022-11-27T05:51:50;13.97;;;2.60;;
5961;SDS011;3007;50.770;0.250;2022-11-27T05:54:17;10.80;;;2.13;;
5961;SDS011;3007;50.770;0.250;2022-11-27T05:56:45;6.17;;;1.83;;
5961;SDS011;3007;50.770;0.250;2022-11-27T05:59:12;17.80;;;3.13;;
5961;SDS011;3007;50.770;0.250;2022-11-27T06:01:41;9.93;;;2.57;;
5961;SDS011;3007;50.770;0.250;2022-11-27T06:04:08;12.60;;;2.63;;
5961;SDS011;3007;50.770;0.250;2022-11-27T06:06:34;15.80;;;2.50;;
5961;SDS011;3007;50.770;0.250;2022-11-27T06:09:01;10.70;;;2.27;;
5961;SDS011;3007;50.770;0.250;2022-11-27T06:11:28;13.97;;;2.33;;
5961;SDS011;3007;50.770;0.250;2022-11-27T06:13:55;8.57;;;2.50;;
5961;SDS011;3007;50.770;0.250;2022-11-27T06:16:23;9.80;;;2.33;;
5961;SDS011;3007;50.770;0.250;2022-11-27T06:18:52;14.73;;;2.33;;
5961;SDS011;3007;50.770;0.250;2022-11-27T06:21:20;10.57;;;2.83;;
5961;SDS011;3007;50.770;0.250;2022-11-27T06:23:51;10.97;;;1.77;;
5961;SDS011;3007;50.770;0.250;2022-11-27T06:26:19;10.17;;;2.20;;
5961;SDS011;3007;50.770;0.250;2022-11-27T06:28:48;5.30;;;1.73;;
5961;SDS011;3007;50.770;0.250;2022-11-27T06:31:16;8.87;;;2.20;;
5961;SDS011;3007;50.770;0.250;2022-11-27T06:33:44;9.30;;;1.53;;
5961;SDS011;3007;50.770;0.250;2022-11-27T06:36:13;9.70;;;2.20;;
5961;SDS011;3007;50.770;0.250;2022-11-27T06:38:41;9.10;;;2.47;;
5961;SDS011;3007;50.770;0.250;2022-11-27T06:41:09;11.77;;;2.17;;
5961;SDS011;3007;50.770;0.250;2022-11-27T06:43:37;9.30;;;1.77;;
5961;SDS011;3007;50.770;0.250;2022-11-27T06:46:05;9.53;;;2.60;;
5961;SDS011;3007;50.770;0.250;2022-11-27T06:48:36;9.97;;;1.63;;
5961;SDS011;3007;50.770;0.250;2022-11-27T06:51:04;8.23;;;1.70;;
5961;SDS011;3007;50.770;0.250;2022-11-27T06:53:35;7.67;;;2.50;;
5961;SDS011;3007;50.770;0.250;2022-11-27T06:56:03;3.03;;;1.43;;
5961;SDS011;3007;50.770;0.250;2022-11-27T06:58:31;7.90;;;1.77;;
5961;SDS011;3007;50.770;0.250;2022-11-27T07:00:58;8.43;;;1.80;;
5961;SDS011;3007;50.770;0.250;2022-11-27T07:03:26;7.20;;;1.50;;
5961;SDS011;3007;50.770;0.250;2022-11-27T07:05:58;4.37;;;1.57;;
5961;SDS011;3007;50.770;0.250;2022-11-27T07:08:25;5.50;;;1.27;;
5961;SDS011;3007;50.770;0.250;2022-11-27T07:10:53;7.53;;;2.23;;
5961;SDS011;3007;50.770;0.250;2022-11-27T07:13:27;4.50;;;1.20;;
5961;SDS011;3007;50.770;0.250;2022-11-27T07:15:54;8.83;;;1.53;;
5961;SDS011;3007;50.770;0.250;2022-11-27T07:18:24;6.03;;;1.53;;
5961;SDS011;3007;50.770;0.250;2022-11-27T07:20:51;6.33;;;1.43;;
5961;SDS011;3007;50.770;0.250;2022-11-27T07:23:18;7.07;;;1.50;;
5961;SDS011;3007;50.770;0.250;2022-11-27T07:25:45;6.03;;;1.50;;
5961;SDS011;3007;50.770;0.250;2022-11-27T07:28:14;4.63;;;1.30;;
5961;SDS011;3007;50.770;0.250;2022-11-27T07:30:44;5.17;;;1.33;;
5961;SDS011;3007;50.770;0.250;2022-11-27T07:33:18;9.03;;;1.67;;
5961;SDS011;3007;50.770;0.250;2022-11-27T07:35:45;6.20;;;1.63;;
5961;SDS011;3007;50.770;0.250;2022-11-27T07:38:12;8.63;;;1.53;;
5961;SDS011;3007;50.770;0.250;2022-11-27T07:40:40;7.27;;;1.80;;
5961;SDS011;3007;50.770;0.250;2022-11-27T07:43:09;8.77;;;1.30;;
5961;SDS011;3007;50.770;0.250;2022-11-27T07:45:38;5.73;;;1.50;;
5961;SDS011;3007;50.770;0.250;2022-11-27T07:48:05;7.50;;;1.40;;
5961;SDS011;3007;50.770;0.250;2022-11-27T07:50:32;9.53;;;1.80;;
5961;SDS011;3007;50.770;0.250;2022-11-27T07:52:59;5.17;;;1.40;;
5961;SDS011;3007;50.770;0.250;2022-11-27T07:55:26;6.53;;;2.03;;
5961;SDS011;3007;50.770;0.250;2022-11-27T07:57:53;11.73;;;1.70;;
5961;SDS011;3007;50.770;0.250;2022-11-27T08:00:20;7.23;;;1.53;;
5961;SDS011;3007;50.770;0.250;2022-11-27T08:02:49;9.13;;;1.73;;
5961;SDS011;3007;50.770;0.250;2022-11-27T08:05:16;5.83;;;1.50;;
5961;SDS011;3007;50.770;0.250;2022-11-27T08:07:43;8.30;;;1.67;;
5961;SDS011;3007;50.770;0.250;2022-11-27T08:10:10;10.83;;;1.60;;
5961;SDS011;3007;50.770;0.250;2022-11-27T08:12:37;10.77;;;1.70;;
5961;SDS011;3007;50.770;0.250;2022-11-27T08:15:04;4.97;;;1.20;;
5961;SDS011;3007;50.770;0.250;2022-11-27T08:17:32;5.40;;;1.20;;
5961;SDS011;3007;50.770;0.250;2022-11-27T08:20:01;3.87;;;1.30;;
5961;SDS011;3007;50.770;0.250;2022-11-27T08:22:28;8.70;;;1.20;;
5961;SDS011;3007;50.770;0.250;2022-11-27T08:24:55;5.83;;;1.37;;
5961;SDS011;3007;50.770;0.250;2022-11-27T08:27:22;8.03;;;1.30;;
5961;SDS011;3007;50.770;0.250;2022-11-27T08:29:49;8.83;;;1.53;;
5961;SDS011;3007;50.770;0.250;2022-11-27T08:32:17;6.47;;;1.43;;
5961;SDS011;3007;50.770;0.250;2022-11-27T08:34:44;7.93;;;1.50;;
5961;SDS011;3007;50.770;0.250;2022-11-27T08:37:12;5.27;;;1.20;;
5961;SDS011;3007;50.770;0.250;2022-11-27T08:39:39;3.20;;;1.40;;
5961;SDS011;3007;50.770;0.250;2022-11-27T08:42:06;2.87;;;0.90;;
5961;SDS011;3007;50.770;0.250;2022-11-27T08:44:33;3.40;;;0.90;;
5961;SDS011;3007;50.770;0.250;2022-11-27T08:47:00;4.80;;;0.90;;
5961;SDS011;3007;50.770;0.250;2022-11-27T08:49:27;2.13;;;1.20;;
5961;SDS011;3007;50.770;0.250;2022-11-27T08:51:54;1.43;;;0.90;;
5961;SDS011;3007;50.770;0.250;2022-11-27T08:54:23;3.10;;;1.27;;
5961;SDS011;3007;50.770;0.250;2022-11-27T08:56:52;5.60;;;1.33;;
5961;SDS011;3007;50.770;0.250;2022-11-27T08:59:19;7.30;;;1.20;;
5961;SDS011;3007;50.770;0.250;2022-11-27T09:01:46;3.43;;;1.00;;
5961;SDS011;3007;50.770;0.250;2022-11-27T09:04:13;7.40;;;1.00;;
5961;SDS011;3007;50.770;0.250;2022-11-27T09:06:40;5.23;;;1.37;;
5961;SDS011;3007;50.770;0.250;2022-11-27T09:09:08;5.67;;;1.30;;
5961;SDS011;3007;50.770;0.250;2022-11-27T09:11:36;4.20;;;1.43;;
5961;SDS011;3007;50.770;0.250;2022-11-27T09:14:04;9.07;;;1.43;;
5961;SDS011;3007;50.770;0.250;2022-11-27T09:16:31;7.73;;;1.30;;
5961;SDS011;3007;50.770;0.250;2022-11-27T09:18:58;8.67;;;1.73;;
5961;SDS011;3007;50.770;0.250;2022-11-27T09:21:25;8.47;;;1.63;;
5961;SDS011;3007;50.770;0.250;2022-11-27T09:23:54;6.00;;;1.73;;
5961;SDS011;3007;50.770;0.250;2022-11-27T09:26:23;3.33;;;1.07;;
5961;SDS011;3007;50.770;0.250;2022-11-27T09:28:52;7.47;;;1.53;;
5961;SDS011;3007;50.770;0.250;2022-11-27T09:31:20;2.57;;;1.30;;
5961;SDS011;3007;50.770;0.250;2022-11-27T09:33:48;9.87;;;1.40;;
5961;SDS011;3007;50.770;0.250;2022-11-27T09:36:16;3.93;;;1.57;;
5961;SDS011;3007;50.770;0.250;2022-11-27T09:38:45;4.70;;;1.50;;
5961;SDS011;3007;50.770;0.250;2022-11-27T09:44:13;7.70;;;1.83;;
5961;SDS011;3007;50.770;0.250;2022-11-27T09:46:47;4.37;;;1.90;;
5961;SDS011;3007;50.770;0.250;2022-11-27T09:49:18;9.97;;;2.03;;
5961;SDS011;3007;50.770;0.250;2022-11-27T09:51:50;4.97;;;1.60;;
5961;SDS011;3007;50.770;0.250;2022-11-27T09:54:22;6.37;;;1.73;;
5961;SDS011;3007;50.770;0.250;2022-11-27T09:56:52;10.20;;;1.50;;
5961;SDS011;3007;50.770;0.250;2022-11-27T09:59:24;8.63;;;1.60;;
5961;SDS011;3007;50.770;0.250;2022-11-27T10:01:55;7.60;;;1.47;;
5961;SDS011;3007;50.770;0.250;2022-11-27T10:04:22;11.23;;;1.57;;
5961;SDS011;3007;50.770;0.250;2022-11-27T10:07:03;7.63;;;2.00;;
5961;SDS011;3007;50.770;0.250;2022-11-27T10:09:45;5.87;;;1.73;;
5961;SDS011;3007;50.770;0.250;2022-11-27T10:12:23;7.27;;;2.00;;
5961;SDS011;3007;50.770;0.250;2022-11-27T10:14:59;6.87;;;1.90;;
5961;SDS011;3007;50.770;0.250;2022-11-27T10:17:33;9.33;;;2.50;;
5961;SDS011;3007;50.770;0.250;2022-11-27T10:20:10;8.83;;;1.80;;
5961;SDS011;3007;50.770;0.250;2022-11-27T10:22:45;6.57;;;1.80;;
5961;SDS011;3007;50.770;0.250;2022-11-27T10:25:18;7.03;;;1.70;;
5961;SDS011;3007;50.770;0.250;2022-11-27T10:27:50;8.30;;;1.90;;
5961;SDS011;3007;50.770;0.250;2022-11-27T10:30:27;5.67;;;1.90;;
5961;SDS011;3007;50.770;0.250;2022-11-27T10:32:56;10.37;;;2.50;;
5961;SDS011;3007;50.770;0.250;2022-11-27T10:35:26;7.83;;;2.40;;
5961;SDS011;3007;50.770;0.250;2022-11-27T10:37:55;5.47;;;1.80;;
5961;SDS011;3007;50.770;0.250;2022-11-27T10:40:26;7.27;;;1.60;;
5961;SDS011;3007;50.770;0.250;2022-11-27T10:42:58;7.33;;;1.70;;
5961;SDS011;3007;50.770;0.250;2022-11-27T10:45:35;13.03;;;2.20;;
5961;SDS011;3007;50.770;0.250;2022-11-27T10:48:07;9.07;;;2.20;;
5961;SDS011;3007;50.770;0.250;2022-11-27T10:50:35;5.03;;;1.93;;
5961;SDS011;3007;50.770;0.250;2022-11-27T10:53:04;8.40;;;1.83;;
5961;SDS011;3007;50.770;0.250;2022-11-27T10:55:36;5.00;;;1.60;;
5961;SDS011;3007;50.770;0.250;2022-11-27T10:58:16;9.77;;;1.93;;
5961;SDS011;3007;50.770;0.250;2022-11-27T11:00:59;14.17;;;2.20;;
5961;SDS011;3007;50.770;0.250;2022-11-27T11:03:27;9.47;;;2.13;;
5961;SDS011;3007;50.770;0.250;2022-11-27T11:05:55;7.27;;;1.77;;
5961;SDS011;3007;50.770;0.250;2022-11-27T11:08:25;10.20;;;2.33;;
5961;SDS011;3007;50.770;0.250;2022-11-27T11:10:56;4.07;;;1.80;;
5961;SDS011;3007;50.770;0.250;2022-11-27T11:13:24;9.20;;;2.20;;
5961;SDS011;3007;50.770;0.250;2022-11-27T11:15:53;6.90;;;2.00;;
5961;SDS011;3007;50.770;0.250;2022-11-27T11:18:24;10.77;;;1.93;;
5961;SDS011;3007;50.770;0.250;2022-11-27T11:20:53;9.47;;;2.43;;
5961;SDS011;3007;50.770;0.250;2022-11-27T11:23:23;8.63;;;1.83;;
5961;SDS011;3007;50.770;0.250;2022-11-27T11:25:57;7.87;;;2.40;;
5961;SDS011;3007;50.770;0.250;2022-11-27T11:28:27;7.13;;;1.93;;
5961;SDS011;3007;50.770;0.250;2022-11-27T11:30:56;7.57;;;2.00;;
5961;SDS011;3007;50.770;0.250;2022-11-27T11:33:28;9.27;;;1.80;;
5961;SDS011;3007;50.770;0.250;2022-11-27T11:35:57;5.47;;;1.37;;
5961;SDS011;3007;50.770;0.250;2022-11-27T11:38:32;11.30;;;1.87;;
5961;SDS011;3007;50.770;0.250;2022-11-27T11:41:00;13.30;;;2.13;;
5961;SDS011;3007;50.770;0.250;2022-11-27T11:43:29;11.80;;;1.90;;
5961;SDS011;3007;50.770;0.250;2022-11-27T11:46:14;8.43;;;1.70;;
5961;SDS011;3007;50.770;0.250;2022-11-27T11:48:54;15.37;;;2.23;;
5961;SDS011;3007;50.770;0.250;2022-11-27T11:51:26;6.37;;;1.57;;
5961;SDS011;3007;50.770;0.250;2022-11-27T11:54:02;8.03;;;2.00;;
5961;SDS011;3007;50.770;0.250;2022-11-27T11:56:44;7.37;;;1.90;;
5961;SDS011;3007;50.770;0.250;2022-11-27T11:59:17;9.00;;;2.30;;
5961;SDS011;3007;50.770;0.250;2022-11-27T12:02:08;10.17;;;2.13;;
5961;SDS011;3007;50.770;0.250;2022-11-27T12:05:10;6.43;;;1.73;;
5961;SDS011;3007;50.770;0.250;2022-11-27T12:07:46;10.10;;;1.77;;
5961;SDS011;3007;50.770;0.250;2022-11-27T12:10:39;10.07;;;1.80;;
5961;SDS011;3007;50.770;0.250;2022-11-27T12:13:17;9.00;;;1.83;;
5961;SDS011;3007;50.770;0.250;2022-11-27T12:15:54;17.60;;;3.03;;
5961;SDS011;3007;50.770;0.250;2022-11-27T12:18:31;6.27;;;1.50;;
5961;SDS011;3007;50.770;0.250;2022-11-27T12:21:12;8.90;;;1.50;;
5961;SDS011;3007;50.770;0.250;2022-11-27T12:23:48;10.03;;;1.77;;
5961;SDS011;3007;50.770;0.250;2022-11-27T12:26:24;5.17;;;1.50;;
5961;SDS011;3007;50.770;0.250;2022-11-27T12:29:02;7.10;;;1.83;;
5961;SDS011;3007;50.770;0.250;2022-11-27T12:32:01;7.70;;;2.03;;
5961;SDS011;3007;50.770;0.250;2022-11-27T12:34:55;15.27;;;2.13;;
5961;SDS011;3007;50.770;0.250;2022-11-27T12:37:37;5.93;;;1.47;;
5961;SDS011;3007;50.770;0.250;2022-11-27T12:40:18;7.00;;;1.57;;
5961;SDS011;3007;50.770;0.250;2022-11-27T12:42:55;7.67;;;2.07;;
5961;SDS011;3007;50.770;0.250;2022-11-27T12:45:32;4.60;;;1.70;;
5961;SDS011;3007;50.770;0.250;2022-11-27T12:48:04;10.00;;;1.80;;
5961;SDS011;3007;50.770;0.250;2022-11-27T12:50:39;7.10;;;1.57;;
5961;SDS011;3007;50.770;0.250;2022-11-27T12:53:11;7.10;;;1.80;;
5961;SDS011;3007;50.770;0.250;2022-11-27T12:55:44;4.93;;;1.60;;
5961;SDS011;3007;50.770;0.250;2022-11-27T12:58:16;7.63;;;1.47;;
5961;SDS011;3007;50.770;0.250;2022-11-27T13:00:51;10.57;;;1.87;;
5961;SDS011;3007;50.770;0.250;2022-11-27T13:03:24;10.90;;;2.47;;
5961;SDS011;3007;50.770;0.250;2022-11-27T13:05:57;6.40;;;1.90;;
5961;SDS011;3007;50.770;0.250;2022-11-27T13:08:31;7.43;;;1.90;;
5961;SDS011;3007;50.770;0.250;2022-11-27T13:11:05;6.63;;;2.87;;
5961;SDS011;3007;50.770;0.250;2022-11-27T13:13:36;10.13;;;2.10;;
5961;SDS011;3007;50.770;0.250;2022-11-27T13:16:08;9.07;;;2.10;;
5961;SDS011;3007;50.770;0.250;2022-11-27T13:18:40;9.30;;;1.43;;
5961;SDS011;3007;50.770;0.250;2022-11-27T13:21:10;8.90;;;1.93;;
5961;SDS011;3007;50.770;0.250;2022-11-27T13:23:43;5.17;;;1.70;;
5961;SDS011;3007;50.770;0.250;2022-11-27T13:26:12;8.13;;;2.23;;
5961;SDS011;3007;50.770;0.250;2022-11-27T13:28:45;6.10;;;1.90;;
5961;SDS011;3007;50.770;0.250;2022-11-27T13:31:16;7.07;;;1.37;;
5961;SDS011;3007;50.770;0.250;2022-11-27T13:33:47;7.53;;;2.53;;
5961;SDS011;3007;50.770;0.250;2022-11-27T13:36:19;6.20;;;1.70;;
5961;SDS011;3007;50.770;0.250;2022-11-27T13:38:56;8.23;;;1.40;;
5961;SDS011;3007;50.770;0.250;2022-11-27T13:41:29;7.93;;;4.10;;
5961;SDS011;3007;50.770;0.250;2022-11-27T13:43:58;7.30;;;3.10;;
5961;SDS011;3007;50.770;0.250;2022-11-27T13:46:26;7.73;;;1.73;;
5961;SDS011;3007;50.770;0.250;2022-11-27T13:48:56;4.67;;;1.43;;
5961;SDS011;3007;50.770;0.250;2022-11-27T13:51:28;5.93;;;1.37;;
5961;SDS011;3007;50.770;0.250;2022-11-27T13:54:07;3.80;;;1.43;;
5961;SDS011;3007;50.770;0.250;2022-11-27T13:56:38;3.90;;;1.23;;
5961;SDS011;3007;50.770;0.250;2022-11-27T13:59:12;4.87;;;1.40;;
5961;SDS011;3007;50.770;0.250;2022-11-27T14:01:51;4.20;;;0.90;;
5961;SDS011;3007;50.770;0.250;2022-11-27T14:04:19;4.80;;;1.80;;
5961;SDS011;3007;50.770;0.250;2022-11-27T14:06:50;6.20;;;1.57;;
5961;SDS011;3007;50.770;0.250;2022-11-27T14:09:31;3.17;;;1.40;;
5961;SDS011;3007;50.770;0.250;2022-11-27T14:12:00;7.80;;;1.80;;
5961;SDS011;3007;50.770;0.250;2022-11-27T14:14:39;4.90;;;1.93;;
5961;SDS011;3007;50.770;0.250;2022-11-27T14:17:19;6.33;;;1.70;;
5961;SDS011;3007;50.770;0.250;2022-11-27T14:19:57;3.93;;;1.80;;
5961;SDS011;3007;50.770;0.250;2022-11-27T14:22:40;10.70;;;3.00;;
5961;SDS011;3007;50.770;0.250;2022-11-27T14:25:19;5.10;;;2.03;;
5961;SDS011;3007;50.770;0.250;2022-11-27T14:27:48;7.57;;;3.73;;
5961;SDS011;3007;50.770;0.250;2022-11-27T14:30:24;7.40;;;3.07;;
5961;SDS011;3007;50.770;0.250;2022-11-27T14:32:59;5.73;;;2.30;;
5961;SDS011;3007;50.770;0.250;2022-11-27T14:35:27;5.23;;;1.83;;
5961;SDS011;3007;50.770;0.250;2022-11-27T14:38:06;5.03;;;1.80;;
5961;SDS011;3007;50.770;0.250;2022-11-27T14:40:35;5.47;;;2.80;;
5961;SDS011;3007;50.770;0.250;2022-11-27T14:43:07;4.77;;;1.80;;
5961;SDS011;3007;50.770;0.250;2022-11-27T14:45:42;3.60;;;1.33;;
5961;SDS011;3007;50.770;0.250;2022-11-27T14:48:13;1.97;;;0.90;;
5961;SDS011;3007;50.770;0.250;2022-11-27T14:50:44;2.27;;;1.10;;
5961;SDS011;3007;50.770;0.250;2022-11-27T14:53:12;9.20;;;2.27;;
5961;SDS011;3007;50.770;0.250;2022-11-27T14:55:40;5.10;;;2.30;;
5961;SDS011;3007;50.770;0.250;2022-11-27T14:58:08;5.60;;;3.30;;
5961;SDS011;3007;50.770;0.250;2022-11-27T15:00:49;5.33;;;2.20;;
5961;SDS011;3007;50.770;0.250;2022-11-27T15:03:17;5.20;;;2.20;;
5961;SDS011;3007;50.770;0.250;2022-11-27T15:05:49;2.73;;;1.60;;
5961;SDS011;3007;50.770;0.250;2022-11-27T15:08:18;4.40;;;1.77;;
5961;SDS011;3007;50.770;0.250;2022-11-27T15:10:47;3.97;;;1.20;;
5961;SDS011;3007;50.770;0.250;2022-11-27T15:13:19;3.77;;;1.10;;
5961;SDS011;3007;50.770;0.250;2022-11-27T15:15:52;3.03;;;1.20;;
5961;SDS011;3007;50.770;0.250;2022-11-27T15:18:22;11.17;;;1.43;;
5961;SDS011;3007;50.770;0.250;2022-11-27T15:20:50;4.00;;;1.37;;
5961;SDS011;3007;50.770;0.250;2022-11-27T15:23:18;4.50;;;1.23;;
5961;SDS011;3007;50.770;0.250;2022-11-27T15:25:50;6.60;;;1.50;;
5961;SDS011;3007;50.770;0.250;2022-11-27T15:28:32;1.40;;;0.60;;
5961;SDS011;3007;50.770;0.250;2022-11-27T15:31:00;2.43;;;1.00;;
5961;SDS011;3007;50.770;0.250;2022-11-27T15:33:29;3.57;;;1.20;;
5961;SDS011;3007;50.770;0.250;2022-11-27T15:36:17;2.10;;;0.87;;
5961;SDS011;3007;50.770;0.250;2022-11-27T15:38:46;6.67;;;1.00;;